Time;durP1;ratioP1;P1;durP2;ratioP2;P2;SDS_P1;SDS_P2;PMS_P1;PMS_P2;Temp;Humidity;BMP_temperature;BMP_pressure;BME280_temperature;BME280_humidity;BME280_pressure;Samples;Min_cycle;Max_cycle;Signal;HPM_P1;HPM_P2
2022/09/24 00:01:29;;;;;;;40.17;32.90;;;13.30;99.90;;;;;;5105521;28;20084;-74
2022/09/24 00:03:58;;;;;;;42.40;31.63;;;13.30;99.90;;;;;;5096311;28;20051;-74
2022/09/24 00:06:24;;;;;;;37.83;30.80;;;13.30;99.90;;;;;;5098868;28;20062;-74
2022/09/24 00:08:53;;;;;;;42.78;33.65;;;13.30;99.90;;;;;;5106885;28;20032;-74
2022/09/24 00:11:20;;;;;;;42.25;32.88;;;13.30;99.90;;;;;;5109726;28;20040;-74
2022/09/24 00:13:46;;;;;;;40.47;31.98;;;13.30;99.90;;;;;;5102987;28;20032;-74
2022/09/24 00:16:13;;;;;;;41.50;33.15;;;13.30;99.90;;;;;;5102862;28;20048;-74
2022/09/24 00:18:40;;;;;;;40.60;32.97;;;13.30;99.90;;;;;;5111341;28;20058;-75
2022/09/24 00:21:18;;;;;;;39.95;31.65;;;13.30;99.90;;;;;;5113443;28;20082;-74
2022/09/24 00:23:47;;;;;;;44.97;35.38;;;13.30;99.90;;;;;;5113469;28;20067;-73
2022/09/24 00:28:58;;;;;;;41.65;32.88;;;13.30;99.90;;;;;;5105262;28;20352;-74
2022/09/24 00:31:24;;;;;;;42.85;34.25;;;13.30;99.90;;;;;;5113152;28;20043;-74
2022/09/24 00:33:51;;;;;;;48.33;35.03;;;13.30;99.90;;;;;;5093078;28;20047;-75
2022/09/24 00:36:18;;;;;;;43.53;34.38;;;13.30;99.90;;;;;;5093107;28;20051;-75
2022/09/24 00:38:43;;;;;;;44.00;34.33;;;13.30;99.90;;;;;;5092805;28;20119;-75
2022/09/24 00:41:09;;;;;;;47.95;36.45;;;13.30;99.90;;;;;;5093503;28;20119;-75
2022/09/24 00:43:36;;;;;;;48.88;36.70;;;13.30;99.90;;;;;;5106542;28;20081;-74
2022/09/24 00:46:08;;;;;;;44.60;35.63;;;13.30;99.90;;;;;;5109150;28;20369;-75
2022/09/24 00:48:34;;;;;;;47.88;36.42;;;13.30;99.90;;;;;;5108887;28;20040;-74
2022/09/24 00:51:01;;;;;;;47.45;37.72;;;13.30;99.90;;;;;;5087986;28;20034;-74
2022/09/24 00:53:31;;;;;;;48.95;38.33;;;13.30;99.90;;;;;;5109051;28;20077;-73
2022/09/24 00:55:58;;;;;;;46.25;35.92;;;13.30;99.90;;;;;;5101573;28;20035;-75
2022/09/24 00:58:24;;;;;;;48.22;38.67;;;13.40;99.90;;;;;;5109279;28;20565;-74
2022/09/24 01:00:57;;;;;;;50.95;37.92;;;13.40;99.90;;;;;;5093210;28;20067;-73
2022/09/24 01:03:25;;;;;;;49.72;37.95;;;13.40;99.90;;;;;;5112868;28;20046;-73
2022/09/24 01:05:51;;;;;;;46.78;37.10;;;13.30;99.90;;;;;;5095455;28;20376;-73
2022/09/24 01:08:18;;;;;;;51.03;37.75;;;13.40;99.90;;;;;;5113236;28;20036;-74
2022/09/24 01:10:55;;;;;;;45.55;35.17;;;13.40;99.90;;;;;;5111295;28;20085;-74
2022/09/24 01:13:39;;;;;;;46.47;36.92;;;13.40;99.90;;;;;;5108047;28;20408;-74
2022/09/24 01:16:19;;;;;;;50.20;37.75;;;13.40;99.90;;;;;;5105239;28;20046;-73
2022/09/24 01:19:10;;;;;;;53.53;40.38;;;13.40;99.90;;;;;;5111217;28;20114;-74
2022/09/24 01:21:54;;;;;;;54.72;41.40;;;13.40;99.90;;;;;;5108082;28;20040;-73
2022/09/24 01:24:45;;;;;;;59.30;41.08;;;13.40;99.90;;;;;;5107457;28;20035;-72
2022/09/24 01:27:37;;;;;;;52.53;39.78;;;13.40;99.90;;;;;;5092266;28;20102;-74
2022/09/24 01:30:07;;;;;;;53.65;39.83;;;13.40;99.90;;;;;;5095688;28;20027;-74
2022/09/24 01:32:55;;;;;;;47.67;37.80;;;13.40;99.90;;;;;;5111858;28;20112;-74
2022/09/24 01:35:35;;;;;;;51.88;39.10;;;13.40;99.90;;;;;;5103985;28;20517;-75
2022/09/24 01:38:05;;;;;;;54.55;39.70;;;13.40;99.90;;;;;;5096005;28;20035;-74
2022/09/24 01:40:31;;;;;;;53.03;41.30;;;13.40;99.90;;;;;;5108706;28;20027;-74
2022/09/24 01:42:58;;;;;;;55.13;41.42;;;13.40;99.90;;;;;;5111816;28;20069;-74
2022/09/24 01:45:30;;;;;;;55.33;41.88;;;13.40;99.90;;;;;;5101928;28;20036;-74
2022/09/24 01:47:59;;;;;;;55.92;41.72;;;13.40;99.90;;;;;;5102888;28;20422;-73
2022/09/24 01:50:29;;;;;;;57.05;42.53;;;13.40;99.90;;;;;;5111754;28;20493;-74
2022/09/24 01:52:57;;;;;;;57.17;44.10;;;13.40;99.90;;;;;;5111798;28;20523;-74
2022/09/24 01:55:31;;;;;;;56.53;43.85;;;13.40;99.90;;;;;;5105706;28;20035;-73
2022/09/24 01:58:04;;;;;;;57.17;44.15;;;13.40;99.90;;;;;;5101334;28;20092;-73
2022/09/24 02:00:30;;;;;;;58.70;42.50;;;13.40;99.90;;;;;;5108666;28;20085;-74
2022/09/24 02:02:59;;;;;;;57.65;45.30;;;13.40;99.90;;;;;;5109054;28;20113;-74
2022/09/24 02:05:33;;;;;;;54.72;42.72;;;13.40;99.90;;;;;;5099520;28;20047;-74
2022/09/24 02:08:10;;;;;;;57.03;43.67;;;13.40;99.90;;;;;;5103500;28;20067;-74
2022/09/24 02:11:07;;;;;;;53.10;41.53;;;13.40;99.90;;;;;;5107860;28;20040;-74
2022/09/24 02:13:39;;;;;;;54.08;42.58;;;13.50;99.90;;;;;;5097458;28;20578;-74
2022/09/24 02:16:08;;;;;;;53.58;40.80;;;13.40;99.90;;;;;;5104197;28;20075;-74
2022/09/24 02:18:38;;;;;;;57.08;41.53;;;13.50;99.90;;;;;;5109216;28;20378;-74
2022/09/24 02:21:09;;;;;;;55.35;41.95;;;13.40;99.90;;;;;;5102672;28;20040;-76
2022/09/24 02:23:37;;;;;;;59.30;43.85;;;13.50;99.90;;;;;;5109044;28;20539;-74
2022/09/24 02:26:04;;;;;;;58.88;44.33;;;13.50;99.90;;;;;;5102296;28;20036;-74
2022/09/24 02:28:32;;;;;;;55.10;43.55;;;13.50;99.90;;;;;;5101980;28;20424;-75
2022/09/24 02:31:04;;;;;;;59.92;42.92;;;13.50;99.90;;;;;;5089431;28;20071;-73
2022/09/24 02:36:17;;;;;;;68.32;46.20;;;13.50;99.90;;;;;;5105815;28;20048;-73
2022/09/24 02:38:45;;;;;;;59.45;44.67;;;13.50;99.90;;;;;;5093733;28;20040;-73
2022/09/24 02:41:11;;;;;;;67.60;48.05;;;13.40;99.90;;;;;;5090107;28;20124;-72
2022/09/24 02:43:37;;;;;;;63.35;46.90;;;13.40;99.90;;;;;;5107878;28;20051;-73
2022/09/24 02:46:03;;;;;;;66.88;47.83;;;13.40;99.90;;;;;;5106152;28;20039;-72
2022/09/24 02:48:29;;;;;;;67.13;49.42;;;13.40;99.90;;;;;;5103708;28;20035;-73
2022/09/24 02:50:54;;;;;;;61.60;45.75;;;13.40;99.90;;;;;;5085794;28;20115;-72
2022/09/24 02:53:20;;;;;;;62.28;44.53;;;13.40;99.90;;;;;;5103495;28;20036;-73
2022/09/24 02:55:45;;;;;;;60.05;45.25;;;13.40;99.90;;;;;;5099332;28;20031;-72
2022/09/24 02:58:11;;;;;;;59.58;45.88;;;13.40;99.90;;;;;;5104036;28;20118;-72
2022/09/24 03:00:36;;;;;;;67.50;47.28;;;13.40;99.90;;;;;;5101382;28;20039;-73
2022/09/24 03:03:02;;;;;;;67.90;48.25;;;13.40;99.90;;;;;;5108407;28;20702;-72
2022/09/24 03:05:27;;;;;;;69.38;49.88;;;13.40;99.90;;;;;;5089671;28;20424;-73
2022/09/24 03:07:53;;;;;;;59.20;45.13;;;13.40;99.90;;;;;;5110277;28;20031;-73
2022/09/24 03:10:19;;;;;;;67.15;46.13;;;13.40;99.90;;;;;;5094985;28;20127;-72
2022/09/24 03:12:44;;;;;;;61.53;47.10;;;13.40;99.90;;;;;;5093976;28;20110;-72
2022/09/24 03:15:10;;;;;;;60.47;44.20;;;13.40;99.90;;;;;;5110338;28;20039;-72
2022/09/24 03:17:36;;;;;;;56.20;42.80;;;13.40;99.90;;;;;;5093518;28;20088;-72
2022/09/24 03:20:01;;;;;;;57.65;43.78;;;13.40;99.90;;;;;;5103015;28;20040;-72
2022/09/24 03:22:27;;;;;;;61.03;44.22;;;13.40;99.90;;;;;;5110082;28;20040;-73
2022/09/24 03:24:52;;;;;;;62.28;44.83;;;13.40;99.90;;;;;;5101943;28;20067;-73
2022/09/24 03:27:18;;;;;;;63.30;45.38;;;13.40;99.90;;;;;;5105287;28;20047;-73
2022/09/24 03:32:28;;;;;;;57.75;44.42;;;13.40;99.90;;;;;;5104380;28;20040;-73
2022/09/24 03:34:54;;;;;;;65.75;42.88;;;13.40;99.90;;;;;;5098591;28;20398;-73
2022/09/24 03:37:20;;;;;;;51.65;41.78;;;13.30;99.90;;;;;;5105817;28;20405;-73
2022/09/24 03:39:45;;;;;;;57.55;40.70;;;13.40;99.90;;;;;;5109514;28;20040;-72
2022/09/24 03:42:11;;;;;;;47.47;36.13;;;13.40;99.90;;;;;;5104416;28;20050;-73
2022/09/24 03:44:36;;;;;;;40.72;33.83;;;13.40;99.90;;;;;;5107100;28;20028;-73
2022/09/24 03:47:02;;;;;;;39.80;31.35;;;13.40;99.90;;;;;;5109913;28;20115;-73
2022/09/24 03:49:27;;;;;;;35.55;30.02;;;13.40;99.90;;;;;;5104105;28;20111;-74
2022/09/24 03:51:53;;;;;;;38.33;30.27;;;13.40;99.90;;;;;;5098858;28;20039;-73
2022/09/24 03:54:18;;;;;;;37.28;30.55;;;13.40;99.90;;;;;;5097507;28;20041;-73
2022/09/24 03:56:44;;;;;;;37.55;29.63;;;13.40;99.90;;;;;;5109824;28;20114;-74
2022/09/24 03:59:10;;;;;;;29.48;25.35;;;13.40;99.90;;;;;;5094934;28;20040;-73
2022/09/24 04:01:36;;;;;;;33.10;26.75;;;13.40;99.90;;;;;;5092829;28;20123;-73
2022/09/24 04:04:02;;;;;;;35.85;28.92;;;13.40;99.90;;;;;;5103475;28;20081;-73
2022/09/24 04:06:28;;;;;;;39.17;30.35;;;13.40;99.90;;;;;;5099675;28;20086;-74
2022/09/24 04:08:54;;;;;;;36.55;28.88;;;13.40;99.90;;;;;;5109842;28;20035;-73
2022/09/24 04:11:20;;;;;;;41.63;29.20;;;13.40;99.90;;;;;;5109842;28;20094;-74
2022/09/24 04:13:45;;;;;;;31.92;25.25;;;13.50;99.90;;;;;;5098878;28;20032;-73
2022/09/24 04:16:11;;;;;;;42.35;32.42;;;13.40;99.90;;;;;;5092630;28;20048;-73
2022/09/24 04:18:36;;;;;;;41.33;31.77;;;13.40;99.90;;;;;;5077083;28;20037;-74
2022/09/24 04:21:02;;;;;;;32.40;27.17;;;13.40;99.90;;;;;;5111251;28;20040;-74
2022/09/24 04:23:30;;;;;;;65.03;34.78;;;13.40;99.90;;;;;;5102793;28;20400;-74
2022/09/24 04:25:56;;;;;;;36.92;31.27;;;13.40;99.90;;;;;;5100989;28;20074;-73
2022/09/24 04:28:22;;;;;;;39.83;29.85;;;13.40;99.90;;;;;;5110461;28;20092;-74
2022/09/24 04:30:47;;;;;;;35.05;28.73;;;13.50;99.90;;;;;;5113328;28;20035;-74
2022/09/24 04:33:13;;;;;;;49.97;33.50;;;13.40;99.90;;;;;;5111080;28;20035;-74
2022/09/24 04:35:38;;;;;;;31.63;27.08;;;13.40;99.90;;;;;;5113331;28;20039;-74
2022/09/24 04:38:04;;;;;;;46.88;32.35;;;13.40;99.90;;;;;;5102407;28;20504;-73
2022/09/24 04:40:30;;;;;;;37.60;28.77;;;13.40;99.90;;;;;;5109691;28;20035;-73
2022/09/24 04:42:56;;;;;;;31.67;25.95;;;13.40;99.90;;;;;;5101769;28;20483;-74
2022/09/24 04:45:23;;;;;;;36.05;28.60;;;13.40;99.90;;;;;;5092923;28;20050;-74
2022/09/24 04:47:52;;;;;;;41.25;28.60;;;13.40;99.90;;;;;;5092872;28;20072;-74
2022/09/24 04:50:18;;;;;;;33.15;24.15;;;13.40;99.90;;;;;;5075770;28;20043;-74
2022/09/24 04:52:43;;;;;;;32.38;21.30;;;13.40;99.90;;;;;;5092091;28;20042;-74
2022/09/24 04:55:09;;;;;;;26.35;19.00;;;13.40;99.90;;;;;;5103386;28;20118;-74
2022/09/24 04:57:35;;;;;;;30.23;16.63;;;13.40;99.90;;;;;;5110148;28;20036;-74
2022/09/24 05:00:06;;;;;;;25.02;14.00;;;13.40;99.90;;;;;;5095855;28;20051;-74
2022/09/24 05:02:32;;;;;;;21.73;13.70;;;13.50;99.90;;;;;;5097288;28;20502;-74
2022/09/24 05:04:57;;;;;;;16.73;9.95;;;13.50;99.90;;;;;;5091981;28;20032;-74
2022/09/24 05:07:23;;;;;;;16.90;9.02;;;13.50;99.90;;;;;;5093453;28;20088;-75
2022/09/24 05:09:49;;;;;;;11.43;7.03;;;13.50;99.90;;;;;;5095787;28;20071;-74
2022/09/24 05:12:14;;;;;;;12.00;6.10;;;13.50;99.90;;;;;;5089548;28;20471;-75
2022/09/24 05:14:40;;;;;;;14.35;5.93;;;13.50;99.90;;;;;;5104318;28;20047;-74
2022/09/24 05:17:05;;;;;;;11.60;3.85;;;13.50;99.90;;;;;;5105239;28;20043;-74
2022/09/24 05:19:31;;;;;;;14.55;3.72;;;13.50;99.90;;;;;;5099882;28;20044;-74
2022/09/24 05:21:56;;;;;;;10.82;3.55;;;13.50;99.90;;;;;;5099513;28;20032;-74
2022/09/24 05:24:22;;;;;;;10.75;3.10;;;13.40;99.90;;;;;;5107892;28;20047;-74
2022/09/24 05:29:31;;;;;;;;;;;13.40;99.90;;;;;;5092587;28;20078;-73
2022/09/24 05:31:59;;;;;;;12.02;2.05;;;13.40;99.90;;;;;;5091667;28;20294;-75
2022/09/24 05:34:25;;;;;;;8.45;1.85;;;13.40;99.90;;;;;;5094890;28;20035;-74
2022/09/24 05:36:50;;;;;;;12.85;2.30;;;13.40;99.90;;;;;;5102175;28;20157;-74
2022/09/24 05:39:16;;;;;;;9.18;1.70;;;13.40;99.90;;;;;;5093694;28;20046;-73
2022/09/24 05:41:42;;;;;;;7.35;2.08;;;13.40;99.90;;;;;;5091703;28;20028;-74
2022/09/24 05:44:10;;;;;;;9.98;1.85;;;13.40;99.90;;;;;;5091854;28;20046;-73
2022/09/24 05:46:36;;;;;;;7.00;1.63;;;13.40;99.90;;;;;;5075138;28;20495;-73
2022/09/24 05:49:02;;;;;;;7.97;1.80;;;13.40;99.90;;;;;;5093235;28;20447;-74
2022/09/24 05:51:27;;;;;;;8.65;2.45;;;13.40;99.90;;;;;;5101809;28;20057;-74
2022/09/24 05:53:53;;;;;;;12.20;3.13;;;13.40;99.90;;;;;;5099926;28;20031;-74
2022/09/24 05:56:18;;;;;;;10.80;4.07;;;13.40;99.90;;;;;;5099973;28;20035;-74
2022/09/24 05:58:47;;;;;;;5.70;2.35;;;13.40;99.90;;;;;;5092596;28;20065;-74
2022/09/24 06:01:12;;;;;;;11.93;2.67;;;13.40;99.90;;;;;;5093646;28;20105;-74
2022/09/24 06:03:38;;;;;;;6.50;2.53;;;13.40;99.90;;;;;;5102460;28;20395;-74
2022/09/24 06:06:03;;;;;;;8.88;3.22;;;13.40;99.90;;;;;;5101224;28;20040;-73
2022/09/24 06:08:31;;;;;;;10.80;3.13;;;13.40;99.90;;;;;;5111157;28;20408;-74
2022/09/24 06:11:01;;;;;;;9.02;3.28;;;13.40;99.90;;;;;;5102370;28;20051;-74
2022/09/24 06:13:27;;;;;;;11.65;3.92;;;13.40;99.90;;;;;;5089396;28;20072;-73
2022/09/24 06:16:09;;;;;;;11.82;4.93;;;13.40;99.90;;;;;;5096552;28;20042;-73
2022/09/24 06:18:36;;;;;;;15.02;4.93;;;13.40;99.90;;;;;;5110769;28;20043;-73
2022/09/24 06:21:04;;;;;;;16.50;5.25;;;13.40;99.90;;;;;;5110854;28;20036;-72
2022/09/24 06:23:30;;;;;;;16.90;5.82;;;13.40;99.90;;;;;;5102511;28;20032;-74
2022/09/24 06:25:57;;;;;;;15.73;5.18;;;13.40;99.90;;;;;;5073214;28;20036;-74
2022/09/24 06:28:24;;;;;;;13.45;4.60;;;13.50;99.90;;;;;;5081704;28;20039;-75
2022/09/24 06:30:50;;;;;;;15.35;5.00;;;13.50;99.90;;;;;;5104581;28;20051;-73
2022/09/24 06:33:16;;;;;;;18.52;5.35;;;13.50;99.90;;;;;;5104261;28;20037;-73
2022/09/24 06:35:42;;;;;;;11.38;4.20;;;13.50;99.90;;;;;;5102506;28;20114;-74
2022/09/24 06:38:11;;;;;;;19.17;4.03;;;13.50;99.90;;;;;;5101390;28;20459;-74
2022/09/24 06:40:37;;;;;;;12.05;3.58;;;13.50;99.90;;;;;;5110713;28;20044;-73
2022/09/24 06:43:04;;;;;;;11.23;3.63;;;13.50;99.90;;;;;;5105142;28;20032;-74
2022/09/24 06:45:29;;;;;;;15.82;3.97;;;13.50;99.90;;;;;;5090954;28;20089;-73
2022/09/24 06:47:57;;;;;;;18.13;4.70;;;13.60;99.90;;;;;;5090572;28;20043;-73
2022/09/24 06:50:24;;;;;;;14.43;4.75;;;13.60;99.90;;;;;;5074036;28;20126;-73
2022/09/24 06:52:50;;;;;;;17.25;5.03;;;13.60;99.90;;;;;;5104248;28;20496;-75
2022/09/24 06:55:16;;;;;;;15.85;4.22;;;13.60;99.90;;;;;;5107424;28;20077;-74
2022/09/24 06:57:41;;;;;;;19.08;5.10;;;13.60;99.90;;;;;;5109045;28;20031;-74
2022/09/24 07:00:08;;;;;;;18.35;5.43;;;13.60;99.90;;;;;;5109853;28;20412;-74
2022/09/24 07:02:33;;;;;;;13.38;5.40;;;13.70;99.90;;;;;;5103470;28;20108;-73
2022/09/24 07:04:59;;;;;;;16.70;4.70;;;13.70;99.90;;;;;;5096245;28;20065;-73
2022/09/24 07:07:33;;;;;;;12.63;3.67;;;13.70;99.90;;;;;;5095700;28;20151;-73
2022/09/24 07:10:04;;;;;;;10.70;3.35;;;13.70;99.90;;;;;;5098969;28;20405;-73
2022/09/24 07:12:32;;;;;;;13.10;2.72;;;13.80;99.90;;;;;;5090045;28;20032;-74
2022/09/24 07:14:57;;;;;;;15.35;2.90;;;13.80;99.90;;;;;;5089742;28;20048;-72
2022/09/24 07:17:24;;;;;;;12.45;3.00;;;13.80;99.90;;;;;;5101444;28;20040;-74
2022/09/24 07:19:49;;;;;;;13.63;3.10;;;13.90;99.90;;;;;;5084898;28;20040;-73
2022/09/24 07:22:15;;;;;;;15.88;3.03;;;13.90;99.90;;;;;;5109200;28;20136;-73
2022/09/24 07:24:41;;;;;;;11.20;3.42;;;13.90;99.90;;;;;;5093568;28;20131;-74
2022/09/24 07:27:07;;;;;;;13.20;4.20;;;14.00;99.90;;;;;;5080818;28;20032;-75
2022/09/24 07:29:33;;;;;;;16.13;4.07;;;14.00;99.90;;;;;;5104302;28;20043;-74
2022/09/24 07:31:59;;;;;;;15.85;4.55;;;14.00;99.90;;;;;;5107448;28;20497;-75
2022/09/24 07:34:24;;;;;;;16.60;4.18;;;14.10;99.90;;;;;;5088888;28;20043;-74
2022/09/24 07:36:50;;;;;;;16.90;4.88;;;14.20;99.90;;;;;;5105243;28;20068;-74
2022/09/24 07:39:15;;;;;;;12.60;3.97;;;14.20;99.90;;;;;;5108774;28;20516;-74
2022/09/24 07:41:41;;;;;;;14.32;3.85;;;14.20;99.90;;;;;;5101360;28;20039;-75
2022/09/24 07:44:08;;;;;;;9.68;3.22;;;14.20;99.90;;;;;;5110426;28;20049;-76
2022/09/24 07:46:34;;;;;;;13.63;4.38;;;14.20;99.90;;;;;;5099453;28;20032;-75
2022/09/24 07:49:00;;;;;;;15.20;2.72;;;14.20;99.90;;;;;;5087023;28;20126;-75
2022/09/24 07:51:27;;;;;;;15.30;2.38;;;14.20;99.90;;;;;;5109244;28;20404;-75
2022/09/24 07:53:54;;;;;;;13.68;2.20;;;14.20;99.90;;;;;;5097235;28;20043;-75
2022/09/24 07:56:20;;;;;;;9.75;2.17;;;14.30;99.90;;;;;;5112587;28;20039;-75
2022/09/24 07:58:51;;;;;;;7.63;1.83;;;14.30;99.90;;;;;;5076963;28;20039;-75
2022/09/24 08:01:17;;;;;;;13.55;2.05;;;14.30;99.90;;;;;;5093654;28;20051;-75
2022/09/24 08:03:45;;;;;;;9.13;1.85;;;14.30;99.90;;;;;;5076555;28;20036;-75
2022/09/24 08:06:10;;;;;;;8.00;1.75;;;14.30;99.90;;;;;;5093961;28;20635;-75
2022/09/24 08:08:37;;;;;;;9.52;1.65;;;14.30;99.90;;;;;;5076645;28;20107;-74
2022/09/24 08:11:07;;;;;;;6.80;1.40;;;14.30;99.90;;;;;;5093395;28;20043;-74
2022/09/24 08:13:33;;;;;;;9.10;1.77;;;14.30;99.90;;;;;;5093297;28;20509;-75
2022/09/24 08:16:00;;;;;;;8.48;1.38;;;14.30;99.90;;;;;;5076655;28;20067;-74
2022/09/24 08:18:27;;;;;;;8.80;1.70;;;14.30;99.90;;;;;;5093560;28;20048;-75
2022/09/24 08:20:53;;;;;;;10.32;2.00;;;14.30;99.90;;;;;;5093244;28;20405;-74
2022/09/24 08:23:19;;;;;;;9.32;2.17;;;14.30;99.90;;;;;;5093303;28;20036;-75
2022/09/24 08:25:46;;;;;;;11.35;2.05;;;14.30;99.90;;;;;;5093314;28;20036;-75
2022/09/24 08:28:11;;;;;;;12.18;2.08;;;14.30;99.90;;;;;;5076129;28;20077;-75
2022/09/24 08:30:41;;;;;;;11.63;2.53;;;14.30;99.90;;;;;;5093516;28;20493;-75
2022/09/24 08:33:06;;;;;;;11.68;2.72;;;14.40;99.90;;;;;;5092803;28;20071;-74
2022/09/24 08:35:35;;;;;;;9.65;1.95;;;14.50;99.90;;;;;;5093191;28;20653;-75
2022/09/24 08:38:02;;;;;;;7.55;1.63;;;14.60;99.90;;;;;;5093019;28;20047;-75
2022/09/24 08:40:51;;;;;;;9.68;1.83;;;14.60;99.90;;;;;;5092992;28;20069;-73
2022/09/24 08:43:40;;;;;;;10.52;2.00;;;14.70;99.90;;;;;;5092816;28;20497;-75
2022/09/24 08:49:17;;;;;;;9.25;2.42;;;14.60;99.90;;;;;;5092968;28;20492;-76
2022/09/24 08:52:00;;;;;;;13.13;1.85;;;14.70;99.90;;;;;;5092360;28;20040;-75
2022/09/24 08:54:28;;;;;;;11.20;2.03;;;14.60;99.90;;;;;;5095027;28;20660;-75
2022/09/24 08:56:55;;;;;;;10.05;2.33;;;14.60;99.90;;;;;;5104512;28;20453;-74
2022/09/24 08:59:31;;;;;;;11.40;2.38;;;14.60;99.90;;;;;;5112667;28;20043;-75
2022/09/24 09:02:03;;;;;;;12.00;2.50;;;14.60;99.90;;;;;;5094362;28;20035;-74
2022/09/24 09:04:56;;;;;;;11.48;2.15;;;14.60;99.90;;;;;;5083437;28;20509;-75
2022/09/24 09:07:43;;;;;;;10.57;2.15;;;14.60;99.90;;;;;;5092436;28;20043;-75
2022/09/24 09:10:13;;;;;;;10.60;1.92;;;14.60;99.90;;;;;;5092520;28;20040;-74
2022/09/24 09:12:54;;;;;;;12.48;2.25;;;14.70;99.90;;;;;;5075146;28;20386;-74
2022/09/24 09:15:36;;;;;;;11.43;1.90;;;14.70;99.90;;;;;;5092475;28;20040;-75
2022/09/24 09:18:27;;;;;;;12.02;2.15;;;14.70;99.90;;;;;;5092260;28;20556;-76
2022/09/24 09:20:59;;;;;;;9.07;1.65;;;14.70;99.90;;;;;;5092006;28;20047;-75
2022/09/24 09:23:36;;;;;;;10.35;1.80;;;14.70;99.90;;;;;;5075148;28;20047;-75
2022/09/24 09:26:02;;;;;;;11.30;1.92;;;14.80;99.90;;;;;;5075276;28;20070;-74
2022/09/24 09:28:28;;;;;;;7.90;1.75;;;14.80;99.90;;;;;;5092049;28;20071;-74
2022/09/24 09:31:09;;;;;;;9.15;1.58;;;14.90;99.90;;;;;;5091776;28;20066;-75
2022/09/24 09:34:00;;;;;;;9.20;1.70;;;14.90;99.90;;;;;;5092149;28;20040;-75
2022/09/24 09:36:53;;;;;;;6.03;1.10;;;14.90;99.90;;;;;;5092204;28;20043;-75
2022/09/24 09:39:41;;;;;;;9.82;1.58;;;15.00;99.90;;;;;;5095403;28;20405;-74
2022/09/24 09:42:21;;;;;;;2.97;1.00;;;15.00;99.90;;;;;;5095950;28;20147;-75
2022/09/24 09:44:48;;;;;;;6.95;1.30;;;15.10;99.90;;;;;;5100494;28;20550;-74
2022/09/24 09:47:36;;;;;;;6.63;1.08;;;15.10;99.90;;;;;;5086846;28;20135;-75
2022/09/24 09:50:26;;;;;;;3.92;1.33;;;15.20;99.90;;;;;;5104959;28;20420;-74
2022/09/24 09:52:53;;;;;;;5.47;0.80;;;15.20;99.90;;;;;;5094076;28;20555;-75
2022/09/24 09:55:33;;;;;;;5.28;1.15;;;15.30;99.90;;;;;;5102654;28;20431;-75
2022/09/24 09:58:17;;;;;;;2.72;0.60;;;15.40;99.90;;;;;;5107874;28;20096;-74
2022/09/24 10:00:48;;;;;;;3.15;1.10;;;15.40;99.90;;;;;;5102368;28;20051;-74
2022/09/24 10:03:36;;;;;;;4.32;0.70;;;15.40;99.90;;;;;;5104155;28;20373;-75
2022/09/24 10:06:05;;;;;;;4.65;0.70;;;15.50;99.90;;;;;;5083990;28;20036;-75
2022/09/24 10:08:31;;;;;;;4.80;0.98;;;15.40;99.90;;;;;;5100716;28;20038;-73
2022/09/24 10:10:58;;;;;;;5.40;1.05;;;15.40;99.90;;;;;;5107391;28;20529;-74
2022/09/24 10:13:26;;;;;;;3.42;0.77;;;15.40;99.90;;;;;;5105307;28;20060;-75
2022/09/24 10:15:57;;;;;;;6.38;1.13;;;15.40;99.90;;;;;;5106175;28;20035;-73
2022/09/24 10:18:27;;;;;;;6.85;1.75;;;15.50;99.90;;;;;;5098634;28;20501;-73
2022/09/24 10:20:53;;;;;;;7.40;1.02;;;15.50;99.90;;;;;;5104513;28;20048;-74
2022/09/24 10:23:30;;;;;;;4.03;1.00;;;15.50;99.90;;;;;;5077039;28;20064;-75
2022/09/24 10:25:59;;;;;;;4.88;0.93;;;15.60;99.90;;;;;;5097836;28;20062;-74
2022/09/24 10:31:15;;;;;;;5.45;1.10;;;15.70;99.90;;;;;;5095134;28;20035;-74
2022/09/24 10:33:44;;;;;;;5.22;0.90;;;15.70;99.90;;;;;;5095624;28;20089;-75
2022/09/24 10:36:20;;;;;;;6.30;1.20;;;15.80;99.90;;;;;;5099517;28;20097;-73
2022/09/24 10:38:46;;;;;;;4.68;1.00;;;15.70;99.90;;;;;;5103171;28;20036;-74
2022/09/24 10:41:26;;;;;;;4.20;0.90;;;15.70;99.90;;;;;;5097877;28;20040;-74
2022/09/24 10:43:54;;;;;;;3.90;1.13;;;15.60;99.90;;;;;;5093752;28;20024;-74
2022/09/24 10:46:46;;;;;;;3.50;0.80;;;15.60;99.90;;;;;;5093202;28;20397;-74
2022/09/24 10:49:31;;;;;;;2.53;0.80;;;15.40;99.90;;;;;;5104050;28;20094;-74
2022/09/24 10:52:19;;;;;;;2.97;0.75;;;15.40;99.90;;;;;;5099832;28;20119;-74
2022/09/24 10:55:16;;;;;;;3.70;0.80;;;15.40;99.90;;;;;;5109346;28;20043;-74
2022/09/24 10:58:02;;;;;;;4.85;1.10;;;15.30;99.90;;;;;;5102603;28;20048;-75
2022/09/24 11:00:47;;;;;;;4.75;1.10;;;15.30;99.90;;;;;;5119886;27;20408;-74
2022/09/24 11:03:52;;;;;;;4.40;1.35;;;15.40;99.90;;;;;;5097202;28;20028;-72
2022/09/24 11:06:36;;;;;;;4.55;0.90;;;15.30;99.90;;;;;;5105589;28;20055;-75
2022/09/24 11:09:31;;;;;;;4.10;1.23;;;15.20;99.90;;;;;;5095327;28;20043;-74
2022/09/24 11:12:22;;;;;;;;;;;15.20;99.90;;;;;;5102272;28;20067;-74
2022/09/24 11:15:22;;;;;;;5.32;1.00;;;15.20;99.90;;;;;;5102600;28;19938;-75
2022/09/24 11:18:17;;;;;;;5.55;1.23;;;15.10;99.90;;;;;;5104126;28;20039;-74
2022/09/24 11:20:51;;;;;;;4.88;1.20;;;15.10;99.90;;;;;;5109898;28;20171;-74
2022/09/24 11:23:42;;;;;;;;;;;15.10;99.90;;;;;;5109132;28;20047;-74
2022/09/24 11:26:25;;;;;;;5.97;1.15;;;14.90;99.90;;;;;;5089482;28;19920;-75
2022/09/24 11:29:06;;;;;;;4.93;1.23;;;15.00;99.90;;;;;;5101403;28;20532;-74
2022/09/24 11:31:58;;;;;;;8.93;1.45;;;15.00;99.90;;;;;;5082239;28;20728;-73
2022/09/24 11:34:43;;;;;;;8.48;1.30;;;15.00;99.90;;;;;;5098078;28;20138;-75
2022/09/24 11:37:25;;;;;;;5.20;1.25;;;15.00;99.90;;;;;;5103957;28;20047;-74
2022/09/24 11:40:28;;;;;;;10.63;1.42;;;15.00;99.90;;;;;;5108248;28;20381;-75
2022/09/24 11:43:38;;;;;;;4.07;1.20;;;14.90;99.90;;;;;;5094747;28;20513;-74
2022/09/24 11:46:24;;;;;;;3.95;0.98;;;15.00;99.90;;;;;;5072885;28;20090;-75
2022/09/24 11:49:24;;;;;;;6.35;1.00;;;15.10;99.90;;;;;;5088498;28;20042;-75
2022/09/24 11:51:57;;;;;;;3.58;1.00;;;15.10;99.90;;;;;;5089539;28;20040;-75
2022/09/24 11:54:43;;;;;;;7.82;1.55;;;15.20;99.90;;;;;;5089691;28;20048;-74
2022/09/24 11:57:18;;;;;;;7.32;1.30;;;15.30;99.90;;;;;;5089544;28;20052;-74
2022/09/24 12:00:00;;;;;;;7.22;2.38;;;15.30;99.90;;;;;;5089433;28;20103;-75
2022/09/24 12:02:45;;;;;;;6.43;1.23;;;15.30;99.90;;;;;;5088372;28;20439;-75
2022/09/24 12:05:27;;;;;;;4.13;0.90;;;15.30;99.90;;;;;;5089780;28;20128;-74
2022/09/24 12:08:09;;;;;;;3.65;1.10;;;15.30;99.90;;;;;;5089833;28;20335;-74
2022/09/24 12:11:02;;;;;;;4.40;0.70;;;15.40;99.90;;;;;;5089641;28;20071;-75
2022/09/24 12:13:37;;;;;;;4.53;0.80;;;15.40;99.90;;;;;;5089752;28;20044;-74
2022/09/24 12:16:20;;;;;;;5.57;1.05;;;15.40;99.90;;;;;;5089581;28;20054;-75
2022/09/24 12:19:20;;;;;;;8.95;1.50;;;15.50;99.90;;;;;;5089764;28;20421;-75
2022/09/24 12:21:49;;;;;;;15.32;3.35;;;15.70;99.90;;;;;;5088058;28;20044;-75
2022/09/24 12:24:37;;;;;;;10.57;1.20;;;15.80;99.90;;;;;;5089709;28;20409;-75
2022/09/24 12:27:23;;;;;;;5.20;0.90;;;15.80;99.90;;;;;;5101919;28;20036;-74
2022/09/24 12:33:05;;;;;;;4.20;0.80;;;16.10;99.90;;;;;;5088695;28;20115;-75
2022/09/24 12:35:55;;;;;;;4.43;0.98;;;16.10;99.90;;;;;;5089226;28;20075;-75
2022/09/24 12:38:44;;;;;;;6.15;1.05;;;16.20;99.90;;;;;;5092552;28;20528;-76
2022/09/24 12:41:23;;;;;;;2.35;0.57;;;16.20;99.90;;;;;;5092143;28;20054;-74
2022/09/24 12:43:48;;;;;;;6.15;0.80;;;16.30;99.90;;;;;;5092756;28;20611;-74
2022/09/24 12:46:25;;;;;;;2.88;0.70;;;16.30;99.90;;;;;;5093310;28;20118;-75
2022/09/24 12:48:52;;;;;;;4.63;1.00;;;16.20;99.90;;;;;;5092008;28;20040;-75
2022/09/24 12:51:22;;;;;;;3.35;0.70;;;16.20;99.90;;;;;;5075084;28;20036;-75
2022/09/24 12:53:57;;;;;;;2.85;0.75;;;16.20;99.90;;;;;;5075466;28;20048;-74
2022/09/24 12:56:28;;;;;;;2.80;0.80;;;16.20;99.90;;;;;;5104122;28;20065;-75
2022/09/24 12:58:55;;;;;;;3.15;0.80;;;16.20;99.90;;;;;;5098872;28;20043;-75
2022/09/24 13:01:25;;;;;;;3.50;0.88;;;16.10;99.90;;;;;;5108184;28;20071;-75
2022/09/24 13:04:13;;;;;;;3.45;0.77;;;16.20;99.90;;;;;;5112604;28;20027;-75
2022/09/24 13:06:39;;;;;;;3.58;0.63;;;16.20;99.90;;;;;;5110574;28;20027;-74
2022/09/24 13:09:33;;;;;;;2.63;0.65;;;16.20;99.90;;;;;;5095390;28;20035;-74
2022/09/24 13:12:16;;;;;;;2.75;0.52;;;16.10;99.90;;;;;;5103382;28;20114;-75
2022/09/24 13:14:48;;;;;;;4.20;0.90;;;16.10;99.90;;;;;;5078500;28;20142;-74
2022/09/24 13:17:14;;;;;;;3.83;0.90;;;16.10;99.90;;;;;;5105748;28;20443;-75
2022/09/24 13:19:45;;;;;;;3.97;0.80;;;16.00;99.90;;;;;;5107606;28;20044;-75
2022/09/24 13:22:28;;;;;;;5.53;0.90;;;16.00;99.90;;;;;;5105496;28;20038;-75